Time;durP1;ratioP1;P1;durP2;ratioP2;P2;SDS_P1;SDS_P2;PMS_P1;PMS_P2;Temp;Humidity;BMP_temperature;BMP_pressure;BME280_temperature;BME280_humidity;BME280_pressure;Samples;Min_cycle;Max_cycle;Signal;HPM_P1;HPM_P2
2023/04/25 00:02:10;;;;;;;24.48;6.30;;;7.00;99.90;;;;;;6124187;23;20025;-84
2023/04/25 00:04:37;;;;;;;28.80;6.80;;;7.50;99.90;;;;;;6123836;23;20014;-83
2023/04/25 00:07:03;;;;;;;42.65;6.97;;;7.00;99.90;;;;;;6121892;23;20014;-83
2023/04/25 00:09:32;;;;;;;27.35;6.28;;;7.00;99.90;;;;;;6121853;23;20025;-84
2023/04/25 00:11:57;;;;;;;22.70;6.40;;;7.30;99.90;;;;;;6123874;23;20317;-84
2023/04/25 00:14:23;;;;;;;31.85;6.90;;;7.00;99.90;;;;;;6097483;23;20337;-84
2023/04/25 00:16:51;;;;;;;28.10;6.25;;;7.00;99.90;;;;;;6122546;23;20120;-84
2023/04/25 00:19:17;;;;;;;27.20;6.45;;;7.00;99.90;;;;;;6122305;23;20018;-83
2023/04/25 00:21:45;;;;;;;27.45;6.20;;;7.00;99.90;;;;;;6121931;23;20021;-84
2023/04/25 00:24:12;;;;;;;24.77;6.45;;;7.00;99.90;;;;;;6121469;23;20425;-84
2023/04/25 00:26:37;;;;;;;27.52;5.97;;;6.90;99.90;;;;;;6122002;23;20445;-83
2023/04/25 00:29:03;;;;;;;26.10;6.50;;;6.90;99.90;;;;;;6097272;23;20081;-84
2023/04/25 00:31:29;;;;;;;23.40;5.75;;;6.90;99.90;;;;;;6122234;23;20010;-84
2023/04/25 00:33:55;;;;;;;26.00;6.10;;;6.90;99.90;;;;;;6121941;23;20021;-84
2023/04/25 00:36:20;;;;;;;26.38;6.40;;;6.90;99.90;;;;;;6122541;23;20014;-84
2023/04/25 00:38:46;;;;;;;34.33;7.00;;;6.90;99.90;;;;;;6122191;23;20010;-83
2023/04/25 00:41:12;;;;;;;26.42;7.05;;;6.90;99.90;;;;;;6121697;23;20013;-84
2023/04/25 00:43:39;;;;;;;22.50;6.28;;;6.90;99.90;;;;;;6123620;23;20022;-84
2023/04/25 00:46:05;;;;;;;24.45;5.82;;;7.00;99.90;;;;;;6121984;23;20020;-83
2023/04/25 00:48:30;;;;;;;29.17;6.22;;;6.90;99.90;;;;;;6122003;23;20042;-84
2023/04/25 00:50:58;;;;;;;33.38;7.20;;;7.10;99.90;;;;;;6121847;23;20033;-84
2023/04/25 00:53:26;;;;;;;22.33;5.80;;;6.80;99.90;;;;;;6122060;23;20018;-84
2023/04/25 00:55:52;;;;;;;22.10;5.88;;;7.70;99.90;;;;;;6127895;23;20021;-84
2023/04/25 00:58:19;;;;;;;30.30;6.03;;;7.80;99.90;;;;;;6152789;23;20021;-84
2023/04/25 01:00:47;;;;;;;26.55;5.97;;;6.80;99.90;;;;;;6126600;23;20041;-84
2023/04/25 01:03:13;;;;;;;24.48;6.72;;;7.60;99.90;;;;;;6126460;23;20338;-84
2023/04/25 01:05:41;;;;;;;25.52;6.30;;;7.60;99.90;;;;;;6126448;23;20076;-84
2023/04/25 01:08:07;;;;;;;30.02;6.50;;;6.80;99.90;;;;;;6126345;23;20052;-84
2023/04/25 01:10:32;;;;;;;22.70;5.47;;;7.60;99.90;;;;;;6128490;23;20464;-83
2023/04/25 01:12:58;;;;;;;27.17;6.00;;;6.90;99.90;;;;;;6154487;23;20463;-84
2023/04/25 01:15:24;;;;;;;24.85;6.03;;;6.80;99.90;;;;;;6128582;23;20028;-83
2023/04/25 01:17:50;;;;;;;26.05;5.75;;;6.70;99.90;;;;;;6128548;23;20059;-84
2023/04/25 01:20:16;;;;;;;27.13;5.88;;;6.80;99.90;;;;;;6104280;23;20077;-84
2023/04/25 01:22:43;;;;;;;25.10;5.85;;;7.30;99.90;;;;;;6155229;23;20041;-84
2023/04/25 01:25:09;;;;;;;30.70;5.90;;;7.70;99.90;;;;;;6103847;23;20022;-83
2023/04/25 01:27:37;;;;;;;36.67;7.22;;;6.70;99.90;;;;;;6154700;23;20013;-84
2023/04/25 01:30:03;;;;;;;24.77;5.80;;;6.80;99.90;;;;;;6128911;23;20009;-83
2023/04/25 01:32:37;;;;;;;25.85;6.25;;;6.60;99.90;;;;;;6104421;23;20017;-84
2023/04/25 01:35:09;;;;;;;28.85;6.63;;;6.80;99.90;;;;;;6103977;23;20022;-84
2023/04/25 01:37:36;;;;;;;24.08;5.65;;;6.60;99.90;;;;;;6154631;23;20009;-83
2023/04/25 01:40:03;;;;;;;23.85;4.95;;;6.90;99.90;;;;;;6128190;23;20021;-84
2023/04/25 01:42:28;;;;;;;20.40;5.38;;;6.60;99.90;;;;;;6127670;23;20420;-83
2023/04/25 01:44:54;;;;;;;28.10;5.85;;;6.50;99.90;;;;;;6154724;23;20021;-83
2023/04/25 01:47:20;;;;;;;20.30;5.05;;;7.60;99.90;;;;;;6104001;23;20018;-84
2023/04/25 01:49:45;;;;;;;26.83;4.88;;;6.50;99.90;;;;;;6154641;23;20009;-84
2023/04/25 01:52:11;;;;;;;21.20;5.60;;;7.40;99.90;;;;;;6128335;23;20013;-82
2023/04/25 01:54:37;;;;;;;27.10;5.13;;;6.50;99.90;;;;;;6128333;23;20072;-83
2023/04/25 01:57:03;;;;;;;20.08;5.18;;;6.40;99.90;;;;;;6153558;23;20093;-84
2023/04/25 01:59:29;;;;;;;20.77;5.00;;;6.40;99.90;;;;;;6103516;23;20345;-84
2023/04/25 02:01:54;;;;;;;21.92;4.50;;;6.60;99.90;;;;;;6128360;23;20068;-84
2023/04/25 02:04:20;;;;;;;16.60;4.32;;;6.40;99.90;;;;;;6103516;23;20092;-84
2023/04/25 02:06:46;;;;;;;18.27;4.38;;;6.60;99.90;;;;;;6154667;23;20081;-84
2023/04/25 02:09:11;;;;;;;22.98;4.95;;;6.40;99.90;;;;;;6128207;23;20013;-83
2023/04/25 02:11:37;;;;;;;23.10;4.25;;;6.40;99.90;;;;;;6127173;23;20108;-83
2023/04/25 02:14:03;;;;;;;15.90;4.05;;;6.40;99.90;;;;;;6128260;23;20017;-83
2023/04/25 02:16:30;;;;;;;20.55;4.90;;;6.40;99.90;;;;;;6127756;23;20024;-83
2023/04/25 02:18:56;;;;;;;17.42;3.97;;;6.40;99.90;;;;;;6154445;23;20349;-82
2023/04/25 02:21:21;;;;;;;22.95;4.90;;;6.40;99.90;;;;;;6154001;23;20013;-83
2023/04/25 02:23:48;;;;;;;24.30;4.45;;;6.40;99.90;;;;;;6154394;23;20017;-83
2023/04/25 02:26:14;;;;;;;24.90;4.30;;;6.40;99.90;;;;;;6153670;23;20010;-83
2023/04/25 02:28:40;;;;;;;18.33;4.55;;;6.30;99.90;;;;;;6127936;23;20080;-84
2023/04/25 02:31:05;;;;;;;19.63;4.53;;;6.30;99.90;;;;;;6128377;23;20020;-83
2023/04/25 02:33:31;;;;;;;19.80;4.72;;;6.20;99.90;;;;;;6127839;23;20014;-83
2023/04/25 02:35:56;;;;;;;20.35;4.43;;;6.20;99.90;;;;;;6127635;23;20018;-83
2023/04/25 02:38:22;;;;;;;21.38;4.90;;;6.20;99.90;;;;;;6103155;23;20433;-83
2023/04/25 02:40:48;;;;;;;23.23;4.32;;;6.20;99.90;;;;;;6153502;23;20028;-83
2023/04/25 02:43:13;;;;;;;17.15;4.45;;;6.20;99.90;;;;;;6154644;23;20310;-83
2023/04/25 02:45:39;;;;;;;17.75;4.15;;;6.20;99.90;;;;;;6127586;23;20365;-83
2023/04/25 02:48:05;;;;;;;20.65;4.15;;;6.10;99.90;;;;;;6127581;23;20014;-82
2023/04/25 02:50:30;;;;;;;28.52;5.82;;;6.10;99.90;;;;;;6153939;23;20009;-82
2023/04/25 02:52:56;;;;;;;16.05;3.97;;;6.10;99.90;;;;;;6127764;23;20453;-83
2023/04/25 02:55:22;;;;;;;19.27;4.53;;;6.10;99.90;;;;;;6153157;23;20017;-82
2023/04/25 02:57:47;;;;;;;22.20;5.35;;;6.30;99.90;;;;;;6122700;23;20037;-82
2023/04/25 03:00:14;;;;;;;15.52;3.88;;;6.10;99.90;;;;;;6122641;23;20097;-83
2023/04/25 03:02:40;;;;;;;16.85;4.50;;;6.10;99.90;;;;;;6123335;23;20029;-83
2023/04/25 03:05:07;;;;;;;28.42;5.13;;;6.10;99.90;;;;;;6122803;23;20022;-83
2023/04/25 03:07:32;;;;;;;26.40;5.40;;;6.10;99.90;;;;;;6122811;23;20057;-83
2023/04/25 03:09:58;;;;;;;18.05;4.22;;;6.10;99.90;;;;;;6122101;23;20030;-83
2023/04/25 03:12:23;;;;;;;20.98;3.63;;;6.10;99.90;;;;;;6122784;23;20021;-81
2023/04/25 03:14:49;;;;;;;20.48;4.72;;;6.10;99.90;;;;;;6125219;23;20018;-82
2023/04/25 03:17:15;;;;;;;21.02;3.92;;;6.10;99.90;;;;;;6123912;23;20006;-83
2023/04/25 03:19:41;;;;;;;16.98;4.60;;;6.10;99.90;;;;;;6122395;23;20021;-82
2023/04/25 03:22:07;;;;;;;18.85;4.45;;;6.10;99.90;;;;;;6124589;23;20018;-83
2023/04/25 03:24:32;;;;;;;21.02;4.15;;;7.00;99.90;;;;;;6097353;23;20144;-83
2023/04/25 03:26:58;;;;;;;21.17;4.43;;;6.40;99.90;;;;;;6124209;23;20351;-83
2023/04/25 03:29:27;;;;;;;18.85;4.47;;;6.10;99.90;;;;;;6122612;23;20045;-83
2023/04/25 03:31:53;;;;;;;21.75;4.68;;;6.10;99.90;;;;;;6124606;23;20038;-83
2023/04/25 03:34:19;;;;;;;17.48;4.63;;;7.00;99.90;;;;;;6122685;23;20065;-83
2023/04/25 03:36:44;;;;;;;18.30;4.57;;;6.10;99.90;;;;;;6124614;23;20010;-83
2023/04/25 03:39:10;;;;;;;17.50;4.82;;;6.30;99.90;;;;;;6122375;23;20016;-82
2023/04/25 03:41:36;;;;;;;18.13;4.07;;;6.30;99.90;;;;;;6124220;23;20136;-83
2023/04/25 03:44:02;;;;;;;17.95;3.72;;;6.00;99.90;;;;;;6124540;23;20021;-83
2023/04/25 03:46:27;;;;;;;19.90;4.05;;;6.00;99.90;;;;;;6125144;23;20020;-83
2023/04/25 03:48:53;;;;;;;15.95;3.63;;;6.60;99.90;;;;;;6123100;23;20010;-83
2023/04/25 03:51:18;;;;;;;21.80;4.75;;;6.40;99.90;;;;;;6098191;23;20006;-83
2023/04/25 03:53:44;;;;;;;16.02;3.47;;;6.70;99.90;;;;;;6121443;23;20009;-82
2023/04/25 03:56:10;;;;;;;23.25;4.20;;;6.40;99.90;;;;;;6122359;23;20021;-82
2023/04/25 03:58:36;;;;;;;22.75;3.90;;;5.60;99.90;;;;;;6098368;23;20093;-83
2023/04/25 04:01:07;;;;;;;18.77;4.05;;;5.60;99.90;;;;;;6122562;23;20046;-83
2023/04/25 04:03:38;;;;;;;24.92;4.13;;;5.50;99.90;;;;;;6123948;23;20017;-82
2023/04/25 04:06:05;;;;;;;18.90;3.95;;;5.40;99.90;;;;;;6097281;23;20037;-82
2023/04/25 04:08:31;;;;;;;20.83;3.55;;;5.30;99.90;;;;;;6122424;23;20437;-84
2023/04/25 04:10:58;;;;;;;15.18;4.47;;;5.30;99.90;;;;;;6121579;23;20045;-82
2023/04/25 04:13:26;;;;;;;17.95;4.28;;;5.20;99.90;;;;;;6122043;23;20009;-83
2023/04/25 04:15:52;;;;;;;18.58;4.28;;;5.60;99.90;;;;;;6122207;23;20013;-84
2023/04/25 04:18:18;;;;;;;16.02;3.67;;;5.10;99.90;;;;;;6122026;23;20354;-82
2023/04/25 04:20:43;;;;;;;14.20;3.63;;;5.50;99.90;;;;;;6097419;23;20049;-82
2023/04/25 04:23:09;;;;;;;18.90;3.97;;;6.10;99.90;;;;;;6121706;23;20010;-81
2023/04/25 04:25:35;;;;;;;17.65;4.22;;;4.90;99.90;;;;;;6123341;23;20472;-83
2023/04/25 04:28:01;;;;;;;14.20;4.13;;;5.00;99.90;;;;;;6098006;23;20018;-84
2023/04/25 04:30:29;;;;;;;15.93;3.58;;;4.90;99.90;;;;;;6121968;23;20036;-84
2023/04/25 04:32:55;;;;;;;17.85;3.90;;;4.90;99.90;;;;;;6121936;23;20014;-85
2023/04/25 04:35:23;;;;;;;15.65;4.10;;;4.90;99.90;;;;;;6123208;23;20018;-85
2023/04/25 04:37:51;;;;;;;16.95;4.13;;;5.30;99.90;;;;;;6124356;23;20021;-86
2023/04/25 04:40:17;;;;;;;19.38;4.75;;;4.90;99.90;;;;;;6124692;23;20080;-87
2023/04/25 04:42:47;;;;;;;18.23;3.88;;;5.90;99.90;;;;;;6123699;23;20022;-86
2023/04/25 04:45:13;;;;;;;15.70;3.13;;;5.40;99.90;;;;;;6124958;23;20018;-85
2023/04/25 04:47:40;;;;;;;15.23;4.03;;;5.20;99.90;;;;;;6127914;23;20336;-86
2023/04/25 04:50:09;;;;;;;20.92;3.90;;;5.30;99.90;;;;;;6100730;23;20010;-86
2023/04/25 04:52:38;;;;;;;18.35;3.85;;;4.80;99.90;;;;;;6126567;23;20357;-85
2023/04/25 04:55:05;;;;;;;18.67;3.63;;;5.30;99.90;;;;;;6101821;23;20394;-86
2023/04/25 04:57:32;;;;;;;17.15;4.38;;;4.80;99.90;;;;;;6125825;23;20014;-86
2023/04/25 04:59:58;;;;;;;18.00;4.10;;;5.90;99.90;;;;;;6100333;23;20026;-82
2023/04/25 05:02:24;;;;;;;23.77;4.72;;;5.10;99.90;;;;;;6123564;23;20013;-82
2023/04/25 05:04:51;;;;;;;15.35;3.92;;;5.50;99.90;;;;;;6124745;23;20084;-84
2023/04/25 05:07:17;;;;;;;20.33;3.95;;;5.00;99.90;;;;;;6120971;23;20021;-83
2023/04/25 05:09:43;;;;;;;15.23;3.53;;;5.10;99.90;;;;;;6127081;23;20014;-92
2023/04/25 05:12:08;;;;;;;15.18;4.43;;;6.00;99.90;;;;;;6099886;23;20014;-82
2023/04/25 05:14:34;;;;;;;18.92;3.90;;;6.30;99.90;;;;;;6124760;23;20414;-82
2023/04/25 05:17:00;;;;;;;21.38;4.50;;;5.50;99.90;;;;;;6123572;23;20053;-83
2023/04/25 05:19:26;;;;;;;14.82;3.85;;;5.50;99.90;;;;;;6123434;23;20017;-82
2023/04/25 05:21:52;;;;;;;18.33;4.40;;;6.20;99.90;;;;;;6099149;23;20018;-84
2023/04/25 05:24:18;;;;;;;15.43;3.67;;;6.10;99.90;;;;;;6125261;23;20033;-84
2023/04/25 05:26:43;;;;;;;15.13;3.95;;;6.30;99.90;;;;;;6123260;23;20014;-84
2023/04/25 05:29:09;;;;;;;17.98;3.70;;;5.90;99.90;;;;;;6126210;23;20010;-84
2023/04/25 05:31:36;;;;;;;16.85;4.88;;;6.10;99.90;;;;;;6123740;23;20010;-87
2023/04/25 05:34:02;;;;;;;13.75;3.30;;;6.50;99.90;;;;;;6124316;23;20021;-85
2023/04/25 05:36:28;;;;;;;15.35;4.30;;;5.60;99.90;;;;;;6126530;23;20091;-85
2023/04/25 05:38:53;;;;;;;14.98;3.92;;;5.50;99.90;;;;;;6123555;23;20144;-85
2023/04/25 05:41:20;;;;;;;18.90;3.47;;;6.50;99.90;;;;;;6121967;23;20021;-85
2023/04/25 05:43:48;;;;;;;18.92;4.35;;;6.30;99.90;;;;;;6124428;23;20053;-85
2023/04/25 05:46:14;;;;;;;15.52;4.20;;;6.60;99.90;;;;;;6122654;23;20346;-85
2023/04/25 05:48:39;;;;;;;16.40;4.15;;;6.70;99.90;;;;;;6123364;23;20009;-85
2023/04/25 05:51:05;;;;;;;19.20;4.25;;;6.50;99.90;;;;;;6122218;23;20021;-85
2023/04/25 05:53:31;;;;;;;22.02;4.57;;;6.80;99.90;;;;;;6124365;23;20006;-86
2023/04/25 05:55:57;;;;;;;15.00;3.70;;;7.90;99.90;;;;;;6121985;23;20013;-86
2023/04/25 05:58:22;;;;;;;16.73;4.25;;;7.90;99.90;;;;;;6124051;23;20461;-86
2023/04/25 06:00:48;;;;;;;13.70;4.10;;;8.80;99.90;;;;;;6124253;23;20029;-85
2023/04/25 06:03:14;;;;;;;21.67;4.65;;;10.00;99.90;;;;;;6097026;23;20105;-85
2023/04/25 06:05:43;;;;;;;15.73;3.40;;;11.50;99.90;;;;;;6097665;23;20022;-86
2023/04/25 06:08:10;;;;;;;12.25;3.33;;;12.60;99.90;;;;;;6122398;23;20020;-86
2023/04/25 06:10:36;;;;;;;14.80;3.58;;;13.20;99.90;;;;;;6121418;23;20014;-86
2023/04/25 06:13:02;;;;;;;11.38;3.13;;;12.90;99.90;;;;;;6121904;23;20005;-86
2023/04/25 06:15:28;;;;;;;16.63;3.58;;;13.30;99.90;;;;;;6121960;23;20024;-86
2023/04/25 06:17:54;;;;;;;14.82;3.20;;;14.10;99.90;;;;;;6121481;23;20384;-85
2023/04/25 06:20:22;;;;;;;12.18;3.22;;;13.40;99.90;;;;;;6121790;23;20077;-86
2023/04/25 06:22:52;;;;;;;16.88;3.60;;;13.10;99.90;;;;;;6122065;23;20061;-86
2023/04/25 06:25:18;;;;;;;16.92;4.05;;;12.70;99.90;;;;;;6124134;23;20064;-85
2023/04/25 06:27:43;;;;;;;15.13;2.97;;;12.40;99.90;;;;;;6122268;23;20377;-83
2023/04/25 06:30:11;;;;;;;15.55;3.53;;;11.40;99.90;;;;;;6121317;23;20013;-85
2023/04/25 06:32:36;;;;;;;11.45;2.80;;;10.60;99.90;;;;;;6122904;23;20434;-86
2023/04/25 06:35:03;;;;;;;16.17;3.28;;;10.30;99.90;;;;;;6097353;23;20029;-86
2023/04/25 06:37:28;;;;;;;16.63;3.28;;;10.60;99.90;;;;;;6121928;23;20018;-85
2023/04/25 06:39:54;;;;;;;14.20;3.60;;;11.10;99.90;;;;;;6097694;23;20377;-86
2023/04/25 06:42:19;;;;;;;15.55;3.60;;;11.10;99.90;;;;;;6121663;23;20022;-86
2023/04/25 06:44:45;;;;;;;13.93;3.10;;;12.00;99.90;;;;;;6121438;23;20454;-86
2023/04/25 06:47:11;;;;;;;16.75;3.35;;;13.40;99.90;;;;;;6120797;23;20024;-86
2023/04/25 06:49:36;;;;;;;17.33;3.70;;;14.10;99.90;;;;;;6120966;23;20109;-86
2023/04/25 06:52:02;;;;;;;13.90;3.03;;;14.00;99.90;;;;;;6096445;23;20097;-86
2023/04/25 06:54:29;;;;;;;13.63;2.92;;;14.30;99.90;;;;;;6097155;23;20326;-86
2023/04/25 06:56:55;;;;;;;11.90;2.42;;;14.30;99.90;;;;;;6096760;23;20032;-86
2023/04/25 06:59:21;;;;;;;14.10;3.08;;;13.90;99.90;;;;;;6121807;23;20014;-87
2023/04/25 07:01:47;;;;;;;14.25;3.15;;;13.00;99.90;;;;;;6121665;23;20012;-86
2023/04/25 07:04:13;;;;;;;13.18;3.00;;;13.00;99.90;;;;;;6097402;23;20022;-86
2023/04/25 07:06:42;;;;;;;14.48;2.60;;;12.30;99.90;;;;;;6121391;23;20018;-86
2023/04/25 07:09:09;;;;;;;13.52;2.40;;;11.80;99.90;;;;;;6121144;23;20099;-86
2023/04/25 07:11:35;;;;;;;12.73;2.80;;;11.20;99.90;;;;;;6121266;23;20016;-85
2023/04/25 07:14:02;;;;;;;10.48;2.72;;;10.80;99.90;;;;;;6121534;23;20064;-85
2023/04/25 07:16:27;;;;;;;10.52;2.90;;;10.10;99.90;;;;;;6121057;23;20040;-85
2023/04/25 07:18:53;;;;;;;10.60;2.35;;;9.40;99.90;;;;;;6122629;23;20030;-88
2023/04/25 07:21:19;;;;;;;11.13;2.67;;;9.80;99.90;;;;;;6122082;23;20532;-85
2023/04/25 07:23:44;;;;;;;10.35;2.08;;;9.40;99.90;;;;;;6123311;23;20096;-86
2023/04/25 07:26:10;;;;;;;13.55;3.55;;;8.80;99.90;;;;;;6121104;23;20020;-85
2023/04/25 07:28:36;;;;;;;10.35;2.35;;;9.50;99.90;;;;;;6123170;23;20010;-86
2023/04/25 07:31:02;;;;;;;9.38;2.45;;;8.90;99.90;;;;;;6121059;23;20030;-86
2023/04/25 07:33:28;;;;;;;7.35;2.60;;;9.20;99.90;;;;;;6121730;23;20018;-86
2023/04/25 07:35:54;;;;;;;10.63;2.53;;;9.90;99.90;;;;;;6121607;23;20010;-86
2023/04/25 07:38:20;;;;;;;9.90;2.05;;;10.40;99.90;;;;;;6121034;23;20024;-85
2023/04/25 07:40:47;;;;;;;10.25;2.50;;;10.60;99.90;;;;;;6096724;23;20018;-86
2023/04/25 07:43:16;;;;;;;7.97;2.20;;;10.80;99.90;;;;;;6120892;23;20025;-86
2023/04/25 07:45:45;;;;;;;11.30;2.00;;;10.00;99.90;;;;;;6121192;23;20036;-86
2023/04/25 07:48:10;;;;;;;8.32;1.85;;;9.70;99.90;;;;;;6121772;23;20016;-85
2023/04/25 07:50:36;;;;;;;8.55;1.92;;;9.60;99.90;;;;;;6121446;23;20578;-85
2023/04/25 07:53:02;;;;;;;11.45;2.13;;;9.90;99.90;;;;;;6122680;23;20076;-85
2023/04/25 07:55:27;;;;;;;10.32;2.45;;;10.00;99.90;;;;;;6121430;23;20421;-85
2023/04/25 07:57:53;;;;;;;9.57;2.13;;;9.90;99.90;;;;;;6121124;23;20018;-85
2023/04/25 08:00:19;;;;;;;10.73;2.33;;;10.60;99.90;;;;;;6096753;23;20049;-85
2023/04/25 08:02:45;;;;;;;11.57;2.67;;;10.40;99.90;;;;;;6123671;23;20010;-85
2023/04/25 08:05:14;;;;;;;11.75;2.92;;;10.60;99.90;;;;;;6122701;23;20062;-85
2023/04/25 08:07:40;;;;;;;9.40;2.72;;;10.60;99.90;;;;;;6121208;23;20045;-85
2023/04/25 08:10:07;;;;;;;15.82;3.13;;;10.20;99.90;;;;;;6121262;23;20060;-85
2023/04/25 08:12:33;;;;;;;8.98;2.10;;;10.30;99.90;;;;;;6121462;23;20006;-85
2023/04/25 08:14:59;;;;;;;10.80;2.33;;;10.20;99.90;;;;;;6121000;23;20495;-86
2023/04/25 08:17:24;;;;;;;8.40;1.77;;;10.40;99.90;;;;;;6096883;23;20030;-85
2023/04/25 08:19:50;;;;;;;7.95;2.28;;;10.60;99.90;;;;;;6122023;23;20076;-85
2023/04/25 08:22:16;;;;;;;7.78;1.77;;;10.20;99.90;;;;;;6123144;23;20021;-85
2023/04/25 08:24:42;;;;;;;5.70;2.13;;;10.50;99.90;;;;;;6122986;23;20014;-85
2023/04/25 08:27:07;;;;;;;12.52;2.38;;;11.70;99.90;;;;;;6122819;23;20018;-85
2023/04/25 08:29:34;;;;;;;8.40;2.35;;;12.40;99.90;;;;;;6121004;23;20014;-85
2023/04/25 08:31:59;;;;;;;9.73;2.30;;;12.60;99.90;;;;;;6121242;23;20014;-86
2023/04/25 08:34:25;;;;;;;8.00;1.90;;;13.30;99.90;;;;;;6120939;23;20017;-84
2023/04/25 08:36:51;;;;;;;5.43;1.30;;;12.50;99.90;;;;;;6097072;23;20053;-86
2023/04/25 08:39:17;;;;;;;3.58;1.20;;;11.40;99.90;;;;;;6123312;23;20341;-85
2023/04/25 08:41:44;;;;;;;4.88;1.10;;;10.80;99.90;;;;;;6120475;23;20061;-85
2023/04/25 08:44:11;;;;;;;5.28;1.45;;;10.50;99.90;;;;;;6120937;23;20310;-85
2023/04/25 08:46:38;;;;;;;5.68;1.50;;;9.70;99.90;;;;;;6121184;23;20033;-85
2023/04/25 08:49:04;;;;;;;6.18;1.40;;;10.10;99.90;;;;;;6122785;23;20006;-85
2023/04/25 08:51:31;;;;;;;8.98;2.25;;;9.30;99.90;;;;;;6120918;23;20069;-85
2023/04/25 08:54:10;;;;;;;5.47;1.20;;;9.90;99.90;;;;;;6121053;23;20022;-84
2023/04/25 08:56:47;;;;;;;5.75;1.38;;;9.90;99.90;;;;;;6125624;23;20507;-87
2023/04/25 08:59:13;;;;;;;6.68;1.58;;;10.60;99.90;;;;;;6126654;23;20021;-86
2023/04/25 09:01:39;;;;;;;9.27;1.67;;;11.30;99.90;;;;;;6127248;23;20014;-87
2023/04/25 09:04:05;;;;;;;5.22;1.65;;;11.50;99.90;;;;;;6101927;23;20017;-86
2023/04/25 09:06:31;;;;;;;5.97;1.55;;;11.20;99.90;;;;;;6154680;23;20025;-87
2023/04/25 09:09:07;;;;;;;5.07;1.45;;;11.30;99.90;;;;;;6103917;23;20099;-86
2023/04/25 09:11:35;;;;;;;4.28;1.55;;;11.50;99.90;;;;;;6125196;23;20460;-86
2023/04/25 09:14:22;;;;;;;6.75;1.52;;;11.30;99.90;;;;;;6102082;23;20040;-87
2023/04/25 09:16:57;;;;;;;6.53;1.40;;;10.90;99.90;;;;;;6127283;23;20084;-86
2023/04/25 09:19:24;;;;;;;3.03;1.20;;;10.50;99.90;;;;;;6126893;23;20013;-87
2023/04/25 09:21:50;;;;;;;7.97;1.58;;;10.50;99.90;;;;;;6126471;23;20425;-86
2023/04/25 09:24:29;;;;;;;6.80;1.98;;;10.60;99.90;;;;;;6101234;23;20132;-86
2023/04/25 09:26:55;;;;;;;7.18;2.10;;;11.00;99.90;;;;;;6101107;23;20137;-87
2023/04/25 09:29:32;;;;;;;9.50;1.70;;;11.10;99.90;;;;;;6126789;23;20057;-86
2023/04/25 09:32:15;;;;;;;7.15;2.20;;;11.50;99.90;;;;;;6128336;23;20017;-86
2023/04/25 09:34:50;;;;;;;7.95;1.77;;;12.00;99.90;;;;;;6128254;23;20017;-87
2023/04/25 09:37:29;;;;;;;11.55;3.25;;;12.60;99.90;;;;;;6104132;23;20048;-86
2023/04/25 09:40:00;;;;;;;9.48;2.67;;;12.90;99.90;;;;;;6103091;23;20019;-87
2023/04/25 09:42:28;;;;;;;6.30;2.20;;;13.30;99.90;;;;;;6127847;23;20045;-86
2023/04/25 09:44:55;;;;;;;10.93;2.28;;;13.20;99.90;;;;;;6103558;23;20013;-87
2023/04/25 09:47:23;;;;;;;10.30;2.67;;;13.00;99.90;;;;;;6104043;23;20025;-86
2023/04/25 09:49:50;;;;;;;7.30;2.13;;;12.40;99.90;;;;;;6104048;23;20010;-87
2023/04/25 09:52:25;;;;;;;10.88;2.85;;;12.00;99.90;;;;;;6104110;23;20021;-87
2023/04/25 09:54:51;;;;;;;6.50;1.73;;;11.70;99.90;;;;;;6103434;23;20013;-87
2023/04/25 09:57:22;;;;;;;6.13;1.83;;;10.90;99.90;;;;;;6123255;23;20092;-86
2023/04/25 09:59:50;;;;;;;6.70;1.90;;;10.60;99.90;;;;;;6123621;23;20052;-86
2023/04/25 10:02:20;;;;;;;10.57;2.35;;;10.00;99.90;;;;;;6123416;23;20056;-86
2023/04/25 10:04:56;;;;;;;9.60;2.10;;;10.20;99.90;;;;;;6099287;23;20018;-86
2023/04/25 10:07:25;;;;;;;9.50;2.13;;;9.80;99.90;;;;;;6098877;23;20098;-87
2023/04/25 10:09:59;;;;;;;17.17;6.10;;;10.00;99.90;;;;;;6122575;23;20025;-87
2023/04/25 10:12:24;;;;;;;;;;;10.10;99.90;;;;;;6125084;23;20093;-83
2023/04/25 10:14:52;;;;;;;10.77;2.80;;;10.10;99.90;;;;;;6122619;23;19924;-81
2023/04/25 10:17:18;;;;;;;11.43;2.47;;;10.00;99.90;;;;;;6122080;23;20057;-83
2023/04/25 10:19:45;;;;;;;12.00;2.85;;;9.90;99.90;;;;;;6121833;23;20197;-82
2023/04/25 10:22:17;;;;;;;9.10;2.28;;;10.60;99.90;;;;;;6121327;23;20033;-84
2023/04/25 10:24:44;;;;;;;10.80;3.00;;;10.50;99.90;;;;;;6120909;23;20109;-86
2023/04/25 10:27:10;;;;;;;8.48;2.00;;;10.80;99.90;;;;;;6122696;23;20010;-85
2023/04/25 10:29:36;;;;;;;10.13;2.80;;;10.50;99.90;;;;;;6124020;23;20104;-85
2023/04/25 10:32:02;;;;;;;13.00;2.85;;;10.60;99.90;;;;;;6097915;23;20419;-85
2023/04/25 10:34:39;;;;;;;11.45;2.55;;;10.70;99.90;;;;;;6097372;23;20021;-86
2023/04/25 10:37:08;;;;;;;11.30;2.88;;;11.10;99.90;;;;;;6122057;23;20014;-85
2023/04/25 10:39:34;;;;;;;9.15;2.53;;;11.60;99.90;;;;;;6097048;23;20088;-85
2023/04/25 10:42:02;;;;;;;11.32;2.70;;;11.20;99.90;;;;;;6097084;23;20049;-86
2023/04/25 10:44:31;;;;;;;6.88;2.30;;;11.10;99.90;;;;;;6095296;23;20084;-86
2023/04/25 10:46:59;;;;;;;9.48;2.38;;;11.10;99.90;;;;;;6097501;23;20072;-85
2023/04/25 10:49:31;;;;;;;9.63;1.92;;;11.20;99.90;;;;;;6123047;23;20045;-85
2023/04/25 10:52:16;;;;;;;12.00;2.63;;;10.90;99.90;;;;;;6097179;23;20060;-85
2023/04/25 10:54:46;;;;;;;12.48;2.65;;;11.10;99.90;;;;;;6097152;23;20092;-85
2023/04/25 10:57:38;;;;;;;12.52;2.38;;;11.30;99.90;;;;;;6143478;23;20040;-83
2023/04/25 11:00:05;;;;;;;9.00;2.22;;;11.50;99.90;;;;;;6101796;23;20067;-84
2023/04/25 11:02:31;;;;;;;13.00;2.47;;;11.70;99.90;;;;;;6102498;23;20025;-86
2023/04/25 11:04:56;;;;;;;9.80;2.75;;;11.80;99.90;;;;;;6126095;23;20017;-85
2023/04/25 11:07:49;;;;;;;10.35;2.90;;;11.50;99.90;;;;;;6126422;23;20013;-86
2023/04/25 11:10:15;;;;;;;10.57;2.60;;;11.30;99.90;;;;;;6101827;23;20507;-84
2023/04/25 11:12:46;;;;;;;15.25;2.85;;;11.10;99.90;;;;;;6161398;23;20017;-85
2023/04/25 11:15:12;;;;;;;12.35;2.30;;;10.80;99.90;;;;;;6155888;23;20088;-86
2023/04/25 11:17:40;;;;;;;11.05;2.47;;;10.80;99.90;;;;;;6131062;23;20021;-84
2023/04/25 11:20:11;;;;;;;13.55;2.50;;;10.10;99.90;;;;;;6156182;23;20123;-86
2023/04/25 11:22:40;;;;;;;9.77;2.28;;;10.20;99.90;;;;;;6104488;23;20109;-85
2023/04/25 11:25:07;;;;;;;9.77;2.33;;;10.80;99.90;;;;;;6129683;23;20025;-85
2023/04/25 11:27:34;;;;;;;12.18;3.78;;;10.30;99.90;;;;;;6107598;23;20052;-86
2023/04/25 11:30:13;;;;;;;8.52;2.28;;;10.40;99.90;;;;;;6126534;23;20459;-86
2023/04/25 11:32:41;;;;;;;12.88;2.78;;;10.20;99.90;;;;;;6126585;23;20428;-86
2023/04/25 11:35:07;;;;;;;8.43;2.50;;;10.20;99.90;;;;;;6126959;23;20013;-87
2023/04/25 11:37:34;;;;;;;6.95;2.15;;;10.40;99.90;;;;;;6126394;23;20016;-86
2023/04/25 11:40:00;;;;;;;7.28;2.08;;;10.90;99.90;;;;;;6102071;23;20017;-86
2023/04/25 11:42:26;;;;;;;12.00;2.38;;;10.90;99.90;;;;;;6152732;23;20005;-87
2023/04/25 11:44:52;;;;;;;8.82;2.38;;;11.50;99.90;;;;;;6101573;23;20014;-86
2023/04/25 11:47:17;;;;;;;8.82;2.65;;;11.70;99.90;;;;;;6102351;23;20021;-87
2023/04/25 11:49:43;;;;;;;10.27;2.25;;;11.70;99.90;;;;;;6126715;23;20085;-86
2023/04/25 11:52:09;;;;;;;7.88;2.95;;;11.30;99.20;;;;;;6101622;23;20011;-86
2023/04/25 11:54:36;;;;;;;8.13;2.00;;;11.30;99.90;;;;;;6100982;23;20018;-86
2023/04/25 11:57:03;;;;;;;11.85;2.50;;;11.90;99.90;;;;;;6121347;23;20102;-86
2023/04/25 11:59:28;;;;;;;9.70;2.28;;;11.20;99.10;;;;;;6096257;23;20065;-86
2023/04/25 12:01:54;;;;;;;8.82;2.20;;;11.10;99.90;;;;;;6097009;23;20374;-86
2023/04/25 12:04:22;;;;;;;10.50;2.10;;;11.20;99.90;;;;;;6096747;23;20097;-85
2023/04/25 12:06:52;;;;;;;10.13;1.80;;;11.00;99.20;;;;;;6121229;23;20020;-86
2023/04/25 12:09:21;;;;;;;11.25;2.78;;;11.10;98.40;;;;;;6097350;23;20029;-86
2023/04/25 12:11:58;;;;;;;8.52;2.90;;;11.30;99.70;;;;;;6097349;23;20120;-85
2023/04/25 12:14:29;;;;;;;9.40;2.40;;;11.60;99.90;;;;;;6097205;23;20353;-85
2023/04/25 12:16:59;;;;;;;6.70;2.38;;;12.00;99.90;;;;;;6122341;23;20021;-85
2023/04/25 12:19:25;;;;;;;13.68;2.67;;;11.80;99.50;;;;;;6123046;23;20018;-85
2023/04/25 12:21:51;;;;;;;10.25;2.47;;;11.70;99.90;;;;;;6096593;23;20295;-86
2023/04/25 12:24:25;;;;;;;9.35;2.28;;;12.20;99.90;;;;;;6096875;23;20151;-85
2023/04/25 12:27:00;;;;;;;8.35;2.03;;;12.10;99.90;;;;;;6121411;23;20381;-88
2023/04/25 12:29:28;;;;;;;8.70;2.38;;;12.40;99.50;;;;;;6096674;23;20010;-85
2023/04/25 12:31:55;;;;;;;7.43;1.80;;;12.30;99.30;;;;;;6121635;23;20017;-86
2023/04/25 12:34:22;;;;;;;9.45;1.88;;;12.00;99.90;;;;;;6120959;23;20010;-85
2023/04/25 12:36:49;;;;;;;8.20;2.25;;;11.90;99.90;;;;;;6096540;23;20454;-90
2023/04/25 12:39:20;;;;;;;10.95;2.00;;;11.70;99.90;;;;;;6120961;23;20017;-85
2023/04/25 12:41:47;;;;;;;11.43;2.10;;;11.80;99.90;;;;;;6122632;23;20075;-86
2023/04/25 12:44:13;;;;;;;8.20;2.35;;;11.40;99.90;;;;;;6120895;23;20017;-85
2023/04/25 12:46:40;;;;;;;12.57;2.42;;;11.30;99.90;;;;;;6120306;23;20057;-85